sensor_id;sensor_type;location;lat;lon;timestamp;temperature;humidity
1359;DHT22;673;48.098;14.422;2023-05-07T00:00:56;13.10;99.90
1359;DHT22;673;48.098;14.422;2023-05-07T00:03:25;13.00;99.90
1359;DHT22;673;48.098;14.422;2023-05-07T00:05:52;13.00;99.90
1359;DHT22;673;48.098;14.422;2023-05-07T00:08:19;12.90;99.90
1359;DHT22;673;48.098;14.422;2023-05-07T00:10:47;12.90;99.90
1359;DHT22;673;48.098;14.422;2023-05-07T00:13:15;12.90;99.90
1359;DHT22;673;48.098;14.422;2023-05-07T00:15:43;12.80;99.90
1359;DHT22;673;48.098;14.422;2023-05-07T00:18:10;12.70;99.90
1359;DHT22;673;48.098;14.422;2023-05-07T00:20:37;12.70;99.90
1359;DHT22;673;48.098;14.422;2023-05-07T00:23:04;12.80;99.90
1359;DHT22;673;48.098;14.422;2023-05-07T00:25:31;12.70;99.90
1359;DHT22;673;48.098;14.422;2023-05-07T00:27:58;12.70;99.90
1359;DHT22;673;48.098;14.422;2023-05-07T00:30:29;12.80;99.90
1359;DHT22;673;48.098;14.422;2023-05-07T00:32:57;13.00;99.90
1359;DHT22;673;48.098;14.422;2023-05-07T00:35:24;13.10;99.90
1359;DHT22;673;48.098;14.422;2023-05-07T00:37:51;13.20;99.90
1359;DHT22;673;48.098;14.422;2023-05-07T00:40:18;13.10;99.90
1359;DHT22;673;48.098;14.422;2023-05-07T00:42:45;13.20;99.90
1359;DHT22;673;48.098;14.422;2023-05-07T00:45:14;13.30;99.90
1359;DHT22;673;48.098;14.422;2023-05-07T00:47:43;13.20;99.90
1359;DHT22;673;48.098;14.422;2023-05-07T00:50:11;13.30;99.90
1359;DHT22;673;48.098;14.422;2023-05-07T00:52:39;13.30;99.90
1359;DHT22;673;48.098;14.422;2023-05-07T00:55:07;13.10;99.90
1359;DHT22;673;48.098;14.422;2023-05-07T00:57:37;13.00;99.90
1359;DHT22;673;48.098;14.422;2023-05-07T01:00:06;12.90;99.90
1359;DHT22;673;48.098;14.422;2023-05-07T01:02:34;12.90;99.90
1359;DHT22;673;48.098;14.422;2023-05-07T01:05:02;12.90;99.90
1359;DHT22;673;48.098;14.422;2023-05-07T01:07:31;12.80;99.90
1359;DHT22;673;48.098;14.422;2023-05-07T01:09:59;12.90;99.90
1359;DHT22;673;48.098;14.422;2023-05-07T01:12:27;12.90;99.90
1359;DHT22;673;48.098;14.422;2023-05-07T01:14:55;13.00;99.90
1359;DHT22;673;48.098;14.422;2023-05-07T01:17:22;12.80;99.90
1359;DHT22;673;48.098;14.422;2023-05-07T01:19:49;12.70;99.90
1359;DHT22;673;48.098;14.422;2023-05-07T01:22:28;12.60;99.90
1359;DHT22;673;48.098;14.422;2023-05-07T01:24:55;12.50;99.90
1359;DHT22;673;48.098;14.422;2023-05-07T01:27:22;12.30;99.90
1359;DHT22;673;48.098;14.422;2023-05-07T01:29:50;12.20;99.90
1359;DHT22;673;48.098;14.422;2023-05-07T01:32:20;12.30;99.90
1359;DHT22;673;48.098;14.422;2023-05-07T01:34:48;12.30;99.90
1359;DHT22;673;48.098;14.422;2023-05-07T01:37:16;12.30;99.90
1359;DHT22;673;48.098;14.422;2023-05-07T01:39:45;12.20;99.90
1359;DHT22;673;48.098;14.422;2023-05-07T01:42:12;12.20;99.90
1359;DHT22;673;48.098;14.422;2023-05-07T01:44:39;12.10;99.90
1359;DHT22;673;48.098;14.422;2023-05-07T01:47:06;12.10;99.90
1359;DHT22;673;48.098;14.422;2023-05-07T01:49:34;12.10;99.90
1359;DHT22;673;48.098;14.422;2023-05-07T01:52:02;12.20;99.90
1359;DHT22;673;48.098;14.422;2023-05-07T01:54:31;12.10;99.90
1359;DHT22;673;48.098;14.422;2023-05-07T01:56:59;12.10;99.90
1359;DHT22;673;48.098;14.422;2023-05-07T01:59:26;12.10;99.90
1359;DHT22;673;48.098;14.422;2023-05-07T02:01:54;12.00;99.90
1359;DHT22;673;48.098;14.422;2023-05-07T02:04:21;12.00;99.90
1359;DHT22;673;48.098;14.422;2023-05-07T02:06:48;11.90;99.90
1359;DHT22;673;48.098;14.422;2023-05-07T02:09:16;11.90;99.90
1359;DHT22;673;48.098;14.422;2023-05-07T02:11:42;11.90;99.90
1359;DHT22;673;48.098;14.422;2023-05-07T02:14:11;11.80;99.90
1359;DHT22;673;48.098;14.422;2023-05-07T02:16:38;11.90;99.90
1359;DHT22;673;48.098;14.422;2023-05-07T02:19:05;11.90;99.90
1359;DHT22;673;48.098;14.422;2023-05-07T02:21:32;11.90;99.90
1359;DHT22;673;48.098;14.422;2023-05-07T02:23:58;11.90;99.90
1359;DHT22;673;48.098;14.422;2023-05-07T02:26:25;11.90;99.90
1359;DHT22;673;48.098;14.422;2023-05-07T02:28:52;12.00;99.90
1359;DHT22;673;48.098;14.422;2023-05-07T02:31:21;12.00;99.90
1359;DHT22;673;48.098;14.422;2023-05-07T02:33:48;12.00;99.90
1359;DHT22;673;48.098;14.422;2023-05-07T02:36:15;11.90;99.90
1359;DHT22;673;48.098;14.422;2023-05-07T02:38:42;11.90;99.90
1359;DHT22;673;48.098;14.422;2023-05-07T02:41:09;12.00;99.90
1359;DHT22;673;48.098;14.422;2023-05-07T02:43:37;12.00;99.90
1359;DHT22;673;48.098;14.422;2023-05-07T02:46:05;12.00;99.90
1359;DHT22;673;48.098;14.422;2023-05-07T02:48:34;12.00;99.90
1359;DHT22;673;48.098;14.422;2023-05-07T02:51:01;12.10;99.90
1359;DHT22;673;48.098;14.422;2023-05-07T02:53:28;12.00;99.90
1359;DHT22;673;48.098;14.422;2023-05-07T02:55:56;11.90;99.90
1359;DHT22;673;48.098;14.422;2023-05-07T02:58:24;11.90;99.90
1359;DHT22;673;48.098;14.422;2023-05-07T03:00:51;11.90;99.90
1359;DHT22;673;48.098;14.422;2023-05-07T03:03:18;11.90;99.90
1359;DHT22;673;48.098;14.422;2023-05-07T03:05:47;11.90;99.90
1359;DHT22;673;48.098;14.422;2023-05-07T03:08:14;11.90;99.90
1359;DHT22;673;48.098;14.422;2023-05-07T03:10:41;11.90;99.90
1359;DHT22;673;48.098;14.422;2023-05-07T03:13:08;11.80;99.90
1359;DHT22;673;48.098;14.422;2023-05-07T03:15:35;11.90;99.90
1359;DHT22;673;48.098;14.422;2023-05-07T03:18:02;11.90;99.90
1359;DHT22;673;48.098;14.422;2023-05-07T03:20:29;11.90;99.90
1359;DHT22;673;48.098;14.422;2023-05-07T03:22:57;11.90;99.90
1359;DHT22;673;48.098;14.422;2023-05-07T03:25:24;11.90;99.90
1359;DHT22;673;48.098;14.422;2023-05-07T03:27:51;11.90;99.90
1359;DHT22;673;48.098;14.422;2023-05-07T03:30:18;11.90;99.90
1359;DHT22;673;48.098;14.422;2023-05-07T03:32:45;11.90;99.90
1359;DHT22;673;48.098;14.422;2023-05-07T03:35:12;11.90;99.90
1359;DHT22;673;48.098;14.422;2023-05-07T03:37:39;12.00;99.90
1359;DHT22;673;48.098;14.422;2023-05-07T03:40:09;11.90;99.90
1359;DHT22;673;48.098;14.422;2023-05-07T03:42:38;11.90;99.90
1359;DHT22;673;48.098;14.422;2023-05-07T03:45:06;11.90;99.90
1359;DHT22;673;48.098;14.422;2023-05-07T03:47:33;11.70;99.90
1359;DHT22;673;48.098;14.422;2023-05-07T03:50:00;11.70;99.90
1359;DHT22;673;48.098;14.422;2023-05-07T03:52:27;11.70;99.90
1359;DHT22;673;48.098;14.422;2023-05-07T03:54:53;11.70;99.90
1359;DHT22;673;48.098;14.422;2023-05-07T03:57:22;11.70;99.90
1359;DHT22;673;48.098;14.422;2023-05-07T03:59:49;11.60;99.90
1359;DHT22;673;48.098;14.422;2023-05-07T04:02:16;11.60;99.90
1359;DHT22;673;48.098;14.422;2023-05-07T04:04:43;11.60;99.90
1359;DHT22;673;48.098;14.422;2023-05-07T04:07:10;11.60;99.90
1359;DHT22;673;48.098;14.422;2023-05-07T04:09:37;11.50;99.90
1359;DHT22;673;48.098;14.422;2023-05-07T04:12:04;11.50;99.90
1359;DHT22;673;48.098;14.422;2023-05-07T04:14:32;11.60;99.90
1359;DHT22;673;48.098;14.422;2023-05-07T04:16:59;11.50;99.90
1359;DHT22;673;48.098;14.422;2023-05-07T04:19:26;11.50;99.90
1359;DHT22;673;48.098;14.422;2023-05-07T04:21:53;11.50;99.90
1359;DHT22;673;48.098;14.422;2023-05-07T04:24:20;11.60;99.90
1359;DHT22;673;48.098;14.422;2023-05-07T04:26:47;11.60;99.90
1359;DHT22;673;48.098;14.422;2023-05-07T04:29:14;11.60;99.90
1359;DHT22;673;48.098;14.422;2023-05-07T04:31:43;11.60;99.90
1359;DHT22;673;48.098;14.422;2023-05-07T04:34:10;11.50;99.90
1359;DHT22;673;48.098;14.422;2023-05-07T04:36:38;11.50;99.90
1359;DHT22;673;48.098;14.422;2023-05-07T04:39:05;11.60;99.90
1359;DHT22;673;48.098;14.422;2023-05-07T04:41:32;11.60;99.90
1359;DHT22;673;48.098;14.422;2023-05-07T04:43:59;11.50;99.90
1359;DHT22;673;48.098;14.422;2023-05-07T04:46:26;11.40;99.90
1359;DHT22;673;48.098;14.422;2023-05-07T04:48:54;11.30;99.90
1359;DHT22;673;48.098;14.422;2023-05-07T04:51:21;11.40;99.90
1359;DHT22;673;48.098;14.422;2023-05-07T04:53:48;11.40;99.90
1359;DHT22;673;48.098;14.422;2023-05-07T04:56:16;11.50;99.90
1359;DHT22;673;48.098;14.422;2023-05-07T04:58:43;11.60;99.90
1359;DHT22;673;48.098;14.422;2023-05-07T05:01:09;11.80;99.90
1359;DHT22;673;48.098;14.422;2023-05-07T05:03:38;11.90;99.90
1359;DHT22;673;48.098;14.422;2023-05-07T05:06:07;11.90;99.90
1359;DHT22;673;48.098;14.422;2023-05-07T05:08:34;12.20;99.90
1359;DHT22;673;48.098;14.422;2023-05-07T05:11:01;12.20;99.90
1359;DHT22;673;48.098;14.422;2023-05-07T05:13:28;12.30;99.90
1359;DHT22;673;48.098;14.422;2023-05-07T05:15:55;12.30;99.90
1359;DHT22;673;48.098;14.422;2023-05-07T05:18:22;12.30;99.90
1359;DHT22;673;48.098;14.422;2023-05-07T05:20:51;12.30;99.90
1359;DHT22;673;48.098;14.422;2023-05-07T05:23:19;12.20;99.90
1359;DHT22;673;48.098;14.422;2023-05-07T05:25:46;12.20;99.90
1359;DHT22;673;48.098;14.422;2023-05-07T05:28:13;12.20;99.90
1359;DHT22;673;48.098;14.422;2023-05-07T05:30:40;12.20;99.90
1359;DHT22;673;48.098;14.422;2023-05-07T05:33:07;12.20;99.90
1359;DHT22;673;48.098;14.422;2023-05-07T05:35:34;12.40;99.90
1359;DHT22;673;48.098;14.422;2023-05-07T05:38:01;12.70;99.90
1359;DHT22;673;48.098;14.422;2023-05-07T05:40:30;12.70;99.90
1359;DHT22;673;48.098;14.422;2023-05-07T05:42:57;12.90;99.90
1359;DHT22;673;48.098;14.422;2023-05-07T05:45:24;13.00;99.90
1359;DHT22;673;48.098;14.422;2023-05-07T05:47:51;13.00;99.90
1359;DHT22;673;48.098;14.422;2023-05-07T05:50:18;12.90;99.90
1359;DHT22;673;48.098;14.422;2023-05-07T05:52:45;13.00;99.90
1359;DHT22;673;48.098;14.422;2023-05-07T05:55:12;13.10;99.90
1359;DHT22;673;48.098;14.422;2023-05-07T05:57:41;13.20;99.90
1359;DHT22;673;48.098;14.422;2023-05-07T06:00:09;13.30;99.90
1359;DHT22;673;48.098;14.422;2023-05-07T06:02:36;13.40;99.90
1359;DHT22;673;48.098;14.422;2023-05-07T06:05:04;13.50;99.90
1359;DHT22;673;48.098;14.422;2023-05-07T06:07:31;13.60;99.90
1359;DHT22;673;48.098;14.422;2023-05-07T06:09:58;13.80;99.90
1359;DHT22;673;48.098;14.422;2023-05-07T06:12:25;13.80;99.90
1359;DHT22;673;48.098;14.422;2023-05-07T06:14:53;14.00;99.90
1359;DHT22;673;48.098;14.422;2023-05-07T06:17:20;14.10;99.90
1359;DHT22;673;48.098;14.422;2023-05-07T06:19:47;14.20;99.90
1359;DHT22;673;48.098;14.422;2023-05-07T06:22:14;14.30;99.90
1359;DHT22;673;48.098;14.422;2023-05-07T06:24:41;14.50;99.90
1359;DHT22;673;48.098;14.422;2023-05-07T06:27:08;14.70;99.90
1359;DHT22;673;48.098;14.422;2023-05-07T06:29:35;15.00;99.90
1359;DHT22;673;48.098;14.422;2023-05-07T06:32:11;15.20;99.90
1359;DHT22;673;48.098;14.422;2023-05-07T06:34:38;15.40;99.90
1359;DHT22;673;48.098;14.422;2023-05-07T06:37:05;15.40;99.90
1359;DHT22;673;48.098;14.422;2023-05-07T06:39:33;15.60;99.90
1359;DHT22;673;48.098;14.422;2023-05-07T06:42:00;15.50;99.90
1359;DHT22;673;48.098;14.422;2023-05-07T06:44:28;15.40;99.90
1359;DHT22;673;48.098;14.422;2023-05-07T06:46:56;15.40;99.90
1359;DHT22;673;48.098;14.422;2023-05-07T06:49:24;15.40;99.90
1359;DHT22;673;48.098;14.422;2023-05-07T06:51:51;15.50;99.90
1359;DHT22;673;48.098;14.422;2023-05-07T06:54:20;15.70;99.90
1359;DHT22;673;48.098;14.422;2023-05-07T06:56:47;15.90;99.90
1359;DHT22;673;48.098;14.422;2023-05-07T06:59:14;16.00;99.90
1359;DHT22;673;48.098;14.422;2023-05-07T07:01:41;16.10;99.90
1359;DHT22;673;48.098;14.422;2023-05-07T07:04:08;15.90;99.90
1359;DHT22;673;48.098;14.422;2023-05-07T07:06:36;16.00;99.90
1359;DHT22;673;48.098;14.422;2023-05-07T07:09:03;16.00;99.90
1359;DHT22;673;48.098;14.422;2023-05-07T07:11:30;16.10;99.90
1359;DHT22;673;48.098;14.422;2023-05-07T07:13:58;16.20;99.90
1359;DHT22;673;48.098;14.422;2023-05-07T07:16:25;16.30;99.90
1359;DHT22;673;48.098;14.422;2023-05-07T07:18:52;16.50;99.90
1359;DHT22;673;48.098;14.422;2023-05-07T07:21:19;16.50;99.90
1359;DHT22;673;48.098;14.422;2023-05-07T07:23:47;16.50;99.90
1359;DHT22;673;48.098;14.422;2023-05-07T07:26:14;16.60;99.90
1359;DHT22;673;48.098;14.422;2023-05-07T07:28:44;16.50;99.90
1359;DHT22;673;48.098;14.422;2023-05-07T07:31:12;16.50;99.90
1359;DHT22;673;48.098;14.422;2023-05-07T07:33:39;16.60;99.90
1359;DHT22;673;48.098;14.422;2023-05-07T07:36:06;16.70;99.90
1359;DHT22;673;48.098;14.422;2023-05-07T07:38:34;17.00;99.90
1359;DHT22;673;48.098;14.422;2023-05-07T07:41:02;16.80;99.90
1359;DHT22;673;48.098;14.422;2023-05-07T07:43:29;17.00;99.90
1359;DHT22;673;48.098;14.422;2023-05-07T07:45:57;16.90;99.90
1359;DHT22;673;48.098;14.422;2023-05-07T07:48:24;16.80;99.90
1359;DHT22;673;48.098;14.422;2023-05-07T07:50:51;16.90;99.90
1359;DHT22;673;48.098;14.422;2023-05-07T07:53:18;17.00;99.90
1359;DHT22;673;48.098;14.422;2023-05-07T07:55:46;17.10;99.90
1359;DHT22;673;48.098;14.422;2023-05-07T07:58:14;17.10;99.90
1359;DHT22;673;48.098;14.422;2023-05-07T08:00:41;17.20;99.90
1359;DHT22;673;48.098;14.422;2023-05-07T08:03:09;17.40;99.90
1359;DHT22;673;48.098;14.422;2023-05-07T08:05:36;17.60;99.90
1359;DHT22;673;48.098;14.422;2023-05-07T08:08:04;17.60;99.90
1359;DHT22;673;48.098;14.422;2023-05-07T08:10:31;17.70;99.90
1359;DHT22;673;48.098;14.422;2023-05-07T08:13:00;17.80;99.90
1359;DHT22;673;48.098;14.422;2023-05-07T08:15:30;17.80;99.90
1359;DHT22;673;48.098;14.422;2023-05-07T08:17:57;18.00;99.90
1359;DHT22;673;48.098;14.422;2023-05-07T08:20:25;18.00;99.90
1359;DHT22;673;48.098;14.422;2023-05-07T08:22:53;17.80;99.90
1359;DHT22;673;48.098;14.422;2023-05-07T08:25:19;17.90;99.90
1359;DHT22;673;48.098;14.422;2023-05-07T08:27:46;17.90;99.90
1359;DHT22;673;48.098;14.422;2023-05-07T08:30:14;18.00;99.90
1359;DHT22;673;48.098;14.422;2023-05-07T08:32:42;18.00;99.90
1359;DHT22;673;48.098;14.422;2023-05-07T08:35:09;18.20;99.90
1359;DHT22;673;48.098;14.422;2023-05-07T08:37:36;18.00;99.90
1359;DHT22;673;48.098;14.422;2023-05-07T08:40:04;18.20;99.90
1359;DHT22;673;48.098;14.422;2023-05-07T08:42:35;18.60;99.90
1359;DHT22;673;48.098;14.422;2023-05-07T08:45:04;18.50;99.90
1359;DHT22;673;48.098;14.422;2023-05-07T08:47:38;18.30;99.90
1359;DHT22;673;48.098;14.422;2023-05-07T08:50:08;18.40;99.90
1359;DHT22;673;48.098;14.422;2023-05-07T08:52:35;18.60;99.90
1359;DHT22;673;48.098;14.422;2023-05-07T08:55:03;18.60;99.90
1359;DHT22;673;48.098;14.422;2023-05-07T08:57:30;18.60;99.90
1359;DHT22;673;48.098;14.422;2023-05-07T08:59:57;18.70;99.90
1359;DHT22;673;48.098;14.422;2023-05-07T09:02:24;18.70;99.90
1359;DHT22;673;48.098;14.422;2023-05-07T09:04:51;18.80;99.90
1359;DHT22;673;48.098;14.422;2023-05-07T09:07:20;19.10;99.90
1359;DHT22;673;48.098;14.422;2023-05-07T09:09:47;19.40;99.90
1359;DHT22;673;48.098;14.422;2023-05-07T09:12:14;19.50;99.90
1359;DHT22;673;48.098;14.422;2023-05-07T09:14:41;19.50;99.90
1359;DHT22;673;48.098;14.422;2023-05-07T09:17:08;19.30;99.90
1359;DHT22;673;48.098;14.422;2023-05-07T09:19:35;19.20;99.90
1359;DHT22;673;48.098;14.422;2023-05-07T09:22:04;19.30;99.90
1359;DHT22;673;48.098;14.422;2023-05-07T09:24:33;19.70;99.90
1359;DHT22;673;48.098;14.422;2023-05-07T09:27:03;19.80;99.90
1359;DHT22;673;48.098;14.422;2023-05-07T09:29:30;19.80;99.90
1359;DHT22;673;48.098;14.422;2023-05-07T09:32:01;19.70;97.40
1359;DHT22;673;48.098;14.422;2023-05-07T09:34:29;19.70;97.70
1359;DHT22;673;48.098;14.422;2023-05-07T09:36:56;19.80;98.30
1359;DHT22;673;48.098;14.422;2023-05-07T09:39:24;19.60;97.20
1359;DHT22;673;48.098;14.422;2023-05-07T09:41:55;19.70;99.90
1359;DHT22;673;48.098;14.422;2023-05-07T09:44:24;19.90;99.70
1359;DHT22;673;48.098;14.422;2023-05-07T09:46:54;20.30;98.90
1359;DHT22;673;48.098;14.422;2023-05-07T09:49:24;20.50;97.80
1359;DHT22;673;48.098;14.422;2023-05-07T09:51:52;20.40;98.10
1359;DHT22;673;48.098;14.422;2023-05-07T09:54:19;20.20;97.90
1359;DHT22;673;48.098;14.422;2023-05-07T09:56:48;20.20;97.20
1359;DHT22;673;48.098;14.422;2023-05-07T09:59:16;20.30;98.80
1359;DHT22;673;48.098;14.422;2023-05-07T10:01:44;20.50;98.80
1359;DHT22;673;48.098;14.422;2023-05-07T10:04:12;20.60;96.60
1359;DHT22;673;48.098;14.422;2023-05-07T10:06:39;20.70;97.20
1359;DHT22;673;48.098;14.422;2023-05-07T10:09:06;20.60;96.10
1359;DHT22;673;48.098;14.422;2023-05-07T10:11:34;20.50;96.60
1359;DHT22;673;48.098;14.422;2023-05-07T10:14:01;20.60;96.50
1359;DHT22;673;48.098;14.422;2023-05-07T10:16:31;20.80;96.90
1359;DHT22;673;48.098;14.422;2023-05-07T10:18:58;20.70;96.80
1359;DHT22;673;48.098;14.422;2023-05-07T10:21:27;20.70;97.90
1359;DHT22;673;48.098;14.422;2023-05-07T10:23:59;21.00;98.30
1359;DHT22;673;48.098;14.422;2023-05-07T10:26:27;21.10;97.20
1359;DHT22;673;48.098;14.422;2023-05-07T10:28:59;20.70;96.20
1359;DHT22;673;48.098;14.422;2023-05-07T10:31:52;21.10;96.80
1359;DHT22;673;48.098;14.422;2023-05-07T10:34:24;21.30;96.70
1359;DHT22;673;48.098;14.422;2023-05-07T10:36:53;21.70;97.20
1359;DHT22;673;48.098;14.422;2023-05-07T10:39:22;22.00;95.10
1359;DHT22;673;48.098;14.422;2023-05-07T10:41:49;21.60;94.00
1359;DHT22;673;48.098;14.422;2023-05-07T10:44:26;21.60;94.70
1359;DHT22;673;48.098;14.422;2023-05-07T10:47:11;21.40;95.70
1359;DHT22;673;48.098;14.422;2023-05-07T10:52:38;21.80;94.10
1359;DHT22;673;48.098;14.422;2023-05-07T10:55:21;21.50;94.90
1359;DHT22;673;48.098;14.422;2023-05-07T10:57:50;21.70;93.10
1359;DHT22;673;48.098;14.422;2023-05-07T11:00:41;21.70;93.20
1359;DHT22;673;48.098;14.422;2023-05-07T11:03:10;21.80;95.00
1359;DHT22;673;48.098;14.422;2023-05-07T11:05:37;21.90;94.80
1359;DHT22;673;48.098;14.422;2023-05-07T11:08:05;21.80;93.80
1359;DHT22;673;48.098;14.422;2023-05-07T11:10:51;21.70;95.90
1359;DHT22;673;48.098;14.422;2023-05-07T11:13:42;21.80;93.20
1359;DHT22;673;48.098;14.422;2023-05-07T11:16:17;22.00;93.50
1359;DHT22;673;48.098;14.422;2023-05-07T11:18:50;22.20;91.80
1359;DHT22;673;48.098;14.422;2023-05-07T11:21:34;22.30;91.80
1359;DHT22;673;48.098;14.422;2023-05-07T11:24:02;22.30;90.80
1359;DHT22;673;48.098;14.422;2023-05-07T11:26:31;22.00;91.30
1359;DHT22;673;48.098;14.422;2023-05-07T11:29:11;22.00;93.40
1359;DHT22;673;48.098;14.422;2023-05-07T11:31:38;21.90;91.30
1359;DHT22;673;48.098;14.422;2023-05-07T11:34:07;22.00;93.00
1359;DHT22;673;48.098;14.422;2023-05-07T11:36:34;21.90;91.60
1359;DHT22;673;48.098;14.422;2023-05-07T11:39:02;21.60;91.90
1359;DHT22;673;48.098;14.422;2023-05-07T11:41:35;21.60;93.40
1359;DHT22;673;48.098;14.422;2023-05-07T11:44:03;21.60;91.60
1359;DHT22;673;48.098;14.422;2023-05-07T11:46:30;22.00;92.80
1359;DHT22;673;48.098;14.422;2023-05-07T11:48:57;21.90;90.50
1359;DHT22;673;48.098;14.422;2023-05-07T11:51:25;22.20;92.40
1359;DHT22;673;48.098;14.422;2023-05-07T11:53:53;22.30;91.20
1359;DHT22;673;48.098;14.422;2023-05-07T11:56:20;22.30;91.40
1359;DHT22;673;48.098;14.422;2023-05-07T11:58:48;22.30;91.70
1359;DHT22;673;48.098;14.422;2023-05-07T12:01:16;22.60;92.10
1359;DHT22;673;48.098;14.422;2023-05-07T12:03:45;22.90;91.20
1359;DHT22;673;48.098;14.422;2023-05-07T12:06:14;22.60;87.40
1359;DHT22;673;48.098;14.422;2023-05-07T12:08:43;22.50;90.20
1359;DHT22;673;48.098;14.422;2023-05-07T12:11:14;22.40;87.90
1359;DHT22;673;48.098;14.422;2023-05-07T12:13:43;22.10;86.80
1359;DHT22;673;48.098;14.422;2023-05-07T12:16:10;21.90;87.30
1359;DHT22;673;48.098;14.422;2023-05-07T12:18:37;22.10;90.30
1359;DHT22;673;48.098;14.422;2023-05-07T12:21:05;21.90;91.50
1359;DHT22;673;48.098;14.422;2023-05-07T12:23:34;22.20;90.20
1359;DHT22;673;48.098;14.422;2023-05-07T12:26:03;22.10;89.50
1359;DHT22;673;48.098;14.422;2023-05-07T12:28:32;22.20;90.10
1359;DHT22;673;48.098;14.422;2023-05-07T12:31:03;22.30;86.70
1359;DHT22;673;48.098;14.422;2023-05-07T12:33:31;22.30;92.00
1359;DHT22;673;48.098;14.422;2023-05-07T12:36:00;22.10;89.50
1359;DHT22;673;48.098;14.422;2023-05-07T12:38:34;22.00;87.50
1359;DHT22;673;48.098;14.422;2023-05-07T12:41:03;22.00;87.00
1359;DHT22;673;48.098;14.422;2023-05-07T12:43:31;22.30;90.80
1359;DHT22;673;48.098;14.422;2023-05-07T12:46:01;22.60;87.80
1359;DHT22;673;48.098;14.422;2023-05-07T12:48:29;22.60;91.20
1359;DHT22;673;48.098;14.422;2023-05-07T12:50:58;22.30;88.90
1359;DHT22;673;48.098;14.422;2023-05-07T12:53:26;22.60;89.10
1359;DHT22;673;48.098;14.422;2023-05-07T12:55:55;22.80;86.80
1359;DHT22;673;48.098;14.422;2023-05-07T12:58:26;22.80;88.00
1359;DHT22;673;48.098;14.422;2023-05-07T13:00:54;22.50;80.00
1359;DHT22;673;48.098;14.422;2023-05-07T13:03:25;22.20;85.40
1359;DHT22;673;48.098;14.422;2023-05-07T13:05:54;22.50;89.30
1359;DHT22;673;48.098;14.422;2023-05-07T13:08:29;22.50;90.00
1359;DHT22;673;48.098;14.422;2023-05-07T13:10:57;22.40;84.10
1359;DHT22;673;48.098;14.422;2023-05-07T13:13:26;22.50;85.30
1359;DHT22;673;48.098;14.422;2023-05-07T13:15:53;22.40;88.30
1359;DHT22;673;48.098;14.422;2023-05-07T13:18:20;22.30;86.10
1359;DHT22;673;48.098;14.422;2023-05-07T13:20:47;22.10;86.20
1359;DHT22;673;48.098;14.422;2023-05-07T13:23:14;21.80;87.00
1359;DHT22;673;48.098;14.422;2023-05-07T13:25:41;22.00;90.00
1359;DHT22;673;48.098;14.422;2023-05-07T13:28:08;22.20;90.50
1359;DHT22;673;48.098;14.422;2023-05-07T13:30:36;22.30;90.80
1359;DHT22;673;48.098;14.422;2023-05-07T13:33:03;22.20;89.10
1359;DHT22;673;48.098;14.422;2023-05-07T13:35:30;22.10;90.50
1359;DHT22;673;48.098;14.422;2023-05-07T13:37:57;22.40;90.30
1359;DHT22;673;48.098;14.422;2023-05-07T13:40:25;22.30;89.20
1359;DHT22;673;48.098;14.422;2023-05-07T13:42:52;22.30;89.70
1359;DHT22;673;48.098;14.422;2023-05-07T13:45:20;22.10;90.00
1359;DHT22;673;48.098;14.422;2023-05-07T13:47:48;21.70;88.00
1359;DHT22;673;48.098;14.422;2023-05-07T13:50:16;21.70;91.00
1359;DHT22;673;48.098;14.422;2023-05-07T13:52:43;21.80;90.80
1359;DHT22;673;48.098;14.422;2023-05-07T13:55:17;22.10;90.00
1359;DHT22;673;48.098;14.422;2023-05-07T13:57:44;22.20;90.10
1359;DHT22;673;48.098;14.422;2023-05-07T14:00:12;22.00;91.00
1359;DHT22;673;48.098;14.422;2023-05-07T14:02:39;21.80;92.40
1359;DHT22;673;48.098;14.422;2023-05-07T14:05:08;22.00;90.60
1359;DHT22;673;48.098;14.422;2023-05-07T14:07:35;21.80;90.90
1359;DHT22;673;48.098;14.422;2023-05-07T14:10:03;21.70;90.20
1359;DHT22;673;48.098;14.422;2023-05-07T14:12:31;21.80;90.50
1359;DHT22;673;48.098;14.422;2023-05-07T14:14:58;21.80;91.20
1359;DHT22;673;48.098;14.422;2023-05-07T14:17:25;21.40;91.20
1359;DHT22;673;48.098;14.422;2023-05-07T14:19:52;21.70;91.70
1359;DHT22;673;48.098;14.422;2023-05-07T14:22:22;21.60;91.30
1359;DHT22;673;48.098;14.422;2023-05-07T14:24:49;21.30;91.30
1359;DHT22;673;48.098;14.422;2023-05-07T14:27:16;21.20;91.20
1359;DHT22;673;48.098;14.422;2023-05-07T14:29:44;21.20;91.50
1359;DHT22;673;48.098;14.422;2023-05-07T14:32:11;21.10;92.70
1359;DHT22;673;48.098;14.422;2023-05-07T14:34:38;21.10;93.10
1359;DHT22;673;48.098;14.422;2023-05-07T14:37:05;21.00;92.10
1359;DHT22;673;48.098;14.422;2023-05-07T14:39:33;20.90;92.20
1359;DHT22;673;48.098;14.422;2023-05-07T14:42:00;21.20;92.00
1359;DHT22;673;48.098;14.422;2023-05-07T14:44:27;21.20;92.50
1359;DHT22;673;48.098;14.422;2023-05-07T14:46:54;21.00;92.30
1359;DHT22;673;48.098;14.422;2023-05-07T14:49:21;21.20;93.30
1359;DHT22;673;48.098;14.422;2023-05-07T14:51:48;21.00;92.60
1359;DHT22;673;48.098;14.422;2023-05-07T14:54:15;21.00;92.60
1359;DHT22;673;48.098;14.422;2023-05-07T14:56:44;21.00;92.70
1359;DHT22;673;48.098;14.422;2023-05-07T14:59:10;20.90;93.80
1359;DHT22;673;48.098;14.422;2023-05-07T15:01:38;20.80;93.90
1359;DHT22;673;48.098;14.422;2023-05-07T15:04:08;20.80;94.40
1359;DHT22;673;48.098;14.422;2023-05-07T15:06:35;20.80;94.40
1359;DHT22;673;48.098;14.422;2023-05-07T15:09:02;20.50;94.20
1359;DHT22;673;48.098;14.422;2023-05-07T15:11:29;20.50;93.60
1359;DHT22;673;48.098;14.422;2023-05-07T15:13:57;20.20;93.10
1359;DHT22;673;48.098;14.422;2023-05-07T15:16:24;20.20;94.70
1359;DHT22;673;48.098;14.422;2023-05-07T15:18:51;20.20;95.50
1359;DHT22;673;48.098;14.422;2023-05-07T15:21:18;20.20;95.20
1359;DHT22;673;48.098;14.422;2023-05-07T15:23:45;20.30;95.30
1359;DHT22;673;48.098;14.422;2023-05-07T15:26:12;20.10;94.70
1359;DHT22;673;48.098;14.422;2023-05-07T15:28:39;20.10;95.00
1359;DHT22;673;48.098;14.422;2023-05-07T15:31:08;19.90;95.20
1359;DHT22;673;48.098;14.422;2023-05-07T15:33:35;19.90;95.00
1359;DHT22;673;48.098;14.422;2023-05-07T15:36:02;19.70;95.50
1359;DHT22;673;48.098;14.422;2023-05-07T15:38:29;19.80;95.10
1359;DHT22;673;48.098;14.422;2023-05-07T15:40:56;19.90;94.90
1359;DHT22;673;48.098;14.422;2023-05-07T15:43:23;19.60;94.80
1359;DHT22;673;48.098;14.422;2023-05-07T15:45:50;19.60;95.20
1359;DHT22;673;48.098;14.422;2023-05-07T15:48:21;19.50;95.40
1359;DHT22;673;48.098;14.422;2023-05-07T15:50:48;19.50;96.00
1359;DHT22;673;48.098;14.422;2023-05-07T15:53:15;19.50;96.20
1359;DHT22;673;48.098;14.422;2023-05-07T15:55:42;19.30;95.30
1359;DHT22;673;48.098;14.422;2023-05-07T15:58:09;19.30;95.50
1359;DHT22;673;48.098;14.422;2023-05-07T16:00:37;19.30;95.70
1359;DHT22;673;48.098;14.422;2023-05-07T16:03:06;19.20;95.70
1359;DHT22;673;48.098;14.422;2023-05-07T16:05:34;19.10;95.60
1359;DHT22;673;48.098;14.422;2023-05-07T16:08:02;18.90;95.80
1359;DHT22;673;48.098;14.422;2023-05-07T16:10:30;18.80;96.20